Gambell, Alaska
Current Conditions -  °F | °C
As of 7:16 AM on Tuesday 21 Oct 2014 (Local Time) from PAGM Reporting Station
Overcast Overcast  
Wind Chill: 18°   Ceiling: 3000
Heat Index: 32°   Visibility: 10mi
Dew Point: 25°   Wind: 28mph
Humidity: 75%   Direction: 20°NNE
Pressure: 29.61"   Gusts: NA
Location:  63.78°N, 171.74°W
Report Text: PAGM 211516Z AUTO 02024KT 10SM SCT024 BKN030 OVC037 00/M04 A2961 RMK AO1
Loading
Personal Weather Stations






























Interactive Weather Map
Tropical Storm Tracking
New forecast layout! Learn more

10-Day Weather Forecast

Advertisements
Track Severe Weather on mobile